PORT of IMMINGHAM

Country: United Kingdom Country: United Kingdom [GB]
Latitude / Longitude: 53.63635° / -0.18517295° Show on Map
Local Time:  [UTC +1]
UN/LOCODE: GBIMM
Vessels in Port: 24
Expected Arrivals: 22

Recent Arrivals & Departures


Vessel's Name
Arrival (UTC)
Arrival (LT)
Departure (UTC)
Departure (LT)
Vessel Type: Tankers  SOLENT FISHER 2014-08-22 10:59:00 2014-08-22 11:59:00 2014-08-23 03:18:00 2014-08-23 04:18:00
Vessel Type: Tugs, Pilots etc  SVITZER JOSEPHINE 2014-08-22 14:16:00 2014-08-22 15:16:00 2014-08-23 03:10:00 2014-08-23 04:10:00
Vessel Type: Tugs, Pilots etc  SVITZER KATHLEEN 2014-08-22 16:07:00 2014-08-22 17:07:00 2014-08-23 03:07:00 2014-08-23 04:07:00
Vessel Type: Cargo Vessels  REGGEBORG 2014-08-23 02:26:00 2014-08-23 03:26:00 2014-08-23 02:39:00 2014-08-23 03:39:00
Vessel Type: Tugs, Pilots etc  SCOTSMAN 2014-08-22 15:52:00 2014-08-22 16:52:00 2014-08-23 02:28:00 2014-08-23 03:28:00
Vessel Type: Cargo Vessels  FICARIA SEAWAYS 2014-08-23 02:14:00 2014-08-23 03:14:00
Vessel Type: Tankers  RIX OWL 2014-08-22 15:48:00 2014-08-22 16:48:00 2014-08-23 01:47:00 2014-08-23 02:47:00
Vessel Type: Cargo Vessels  WEGA 2014-08-22 14:17:00 2014-08-22 15:17:00 2014-08-23 01:33:00 2014-08-23 02:33:00
Vessel Type: Tankers  FRANCES WONSILD 2014-08-20 21:11:00 2014-08-20 22:11:00 2014-08-23 00:06:00 2014-08-23 01:06:00
Vessel Type: Cargo Vessels  HR FREQUENCY 2014-08-20 20:54:00 2014-08-20 21:54:00 2014-08-22 23:03:00 2014-08-23 00:03:00

Expected Arrivals


Vessel's Name
Scheduled Arrival (UTC)
Scheduled Arrival (LT)
Estimated Arrival (UTC)
Estimated Arrival (LT)
YUE DIAN 103 2014-08-22 06:00:00 2014-08-22 07:00:00
Vessel Type: Tankers  HORNISSE 2014-08-22 07:00:00 2014-08-22 08:00:00
Vessel Type: Cargo Vessels  SUNNANHAV 2014-08-22 11:00:00 2014-08-22 12:00:00 2014-08-22 16:29:00 2014-08-22 17:29:00
ARK GERMANIA 2014-08-22 13:30:00 2014-08-22 14:30:00 2014-08-23 12:15:00 2014-08-23 13:15:00
Vessel Type: Cargo Vessels  WEGA 2014-08-22 14:00:00 2014-08-22 15:00:00 2014-08-23 04:32:00 2014-08-23 05:32:00
Vessel Type: Cargo Vessels  ORION 2014-08-22 14:00:00 2014-08-22 15:00:00 2014-08-23 14:58:00 2014-08-23 15:58:00
Vessel Type: Tankers  SOLWAY FISHER 2014-08-22 16:00:00 2014-08-22 17:00:00 2014-08-22 14:37:00 2014-08-22 15:37:00
Vessel Type: Cargo Vessels  EEMS DELFIA 2014-08-22 20:00:00 2014-08-22 21:00:00 2014-08-22 22:18:00 2014-08-22 23:18:00
Vessel Type: Tankers  PROSPERO 2014-08-22 21:30:00 2014-08-22 22:30:00 2014-08-22 23:47:00 2014-08-23 00:47:00
Vessel Type: Tankers  BRISOTE 2014-08-23 01:00:00 2014-08-23 02:00:00 2014-08-23 01:00:00 2014-08-23 02:00:00

Wind Forecast


    
Time (UTC)
Speed
Direction
Temperature
2014-08-23 03:00:00 11 knots 288° 10°C
2014-08-23 06:00:00 11 knots 291° 9°C
2014-08-23 09:00:00 11 knots 306° 12°C
2014-08-23 12:00:00 9 knots 327° 14°C
2014-08-23 15:00:00 7 knots 343° 14°C
2014-08-23 18:00:00 5 knots 337° 14°C
2014-08-23 21:00:00 7 knots 301° 14°C
2014-08-24 00:00:00 11 knots 300° 11°C
2014-08-24 03:00:00 10 knots 294° 10°C
2014-08-24 06:00:00 9 knots 295° 8°C
2014-08-24 09:00:00 8 knots 307° 11°C
2014-08-24 12:00:00 5 knots 312° 14°C
2014-08-24 15:00:00 4 knots 325° 15°C
2014-08-24 18:00:00 3 knots 75° 15°C
2014-08-24 21:00:00 9 knots 137° 14°C
2014-08-25 00:00:00 9 knots 155° 14°C
2014-08-25 03:00:00 7 knots 162° 14°C